sensor_id;sensor_type;location;lat;lon;timestamp;temperature;humidity
37050;DHT22;22958;51.232;6.826;2022-10-31T00:02:22;13.60;99.90
37050;DHT22;22958;51.232;6.826;2022-10-31T00:04:47;13.60;99.90
37050;DHT22;22958;51.232;6.826;2022-10-31T00:07:12;13.50;99.90
37050;DHT22;22958;51.232;6.826;2022-10-31T00:09:38;13.50;99.90
37050;DHT22;22958;51.232;6.826;2022-10-31T00:12:03;13.40;99.90
37050;DHT22;22958;51.232;6.826;2022-10-31T00:14:29;13.40;99.90
37050;DHT22;22958;51.232;6.826;2022-10-31T00:16:54;13.50;99.90
37050;DHT22;22958;51.232;6.826;2022-10-31T00:19:20;13.50;99.90
37050;DHT22;22958;51.232;6.826;2022-10-31T00:21:45;13.50;99.90
37050;DHT22;22958;51.232;6.826;2022-10-31T00:24:10;13.40;99.90
37050;DHT22;22958;51.232;6.826;2022-10-31T00:26:36;13.40;99.90
37050;DHT22;22958;51.232;6.826;2022-10-31T00:29:02;13.30;99.90
37050;DHT22;22958;51.232;6.826;2022-10-31T00:31:28;13.40;99.90
37050;DHT22;22958;51.232;6.826;2022-10-31T00:33:53;13.50;99.90
37050;DHT22;22958;51.232;6.826;2022-10-31T00:36:19;13.50;99.90
37050;DHT22;22958;51.232;6.826;2022-10-31T00:38:45;13.60;99.90
37050;DHT22;22958;51.232;6.826;2022-10-31T00:41:11;13.60;99.90
37050;DHT22;22958;51.232;6.826;2022-10-31T00:43:37;13.60;99.90
37050;DHT22;22958;51.232;6.826;2022-10-31T00:46:03;13.60;99.90
37050;DHT22;22958;51.232;6.826;2022-10-31T00:48:28;13.60;99.90
37050;DHT22;22958;51.232;6.826;2022-10-31T00:50:54;13.50;99.90
37050;DHT22;22958;51.232;6.826;2022-10-31T00:53:19;13.50;99.90
37050;DHT22;22958;51.232;6.826;2022-10-31T00:55:45;13.50;99.90
37050;DHT22;22958;51.232;6.826;2022-10-31T00:58:10;13.50;99.90
37050;DHT22;22958;51.232;6.826;2022-10-31T01:00:36;13.40;99.90
37050;DHT22;22958;51.232;6.826;2022-10-31T01:03:01;13.40;99.90
37050;DHT22;22958;51.232;6.826;2022-10-31T01:05:27;13.50;99.90
37050;DHT22;22958;51.232;6.826;2022-10-31T01:07:52;13.50;99.90
37050;DHT22;22958;51.232;6.826;2022-10-31T01:10:17;13.50;99.90
37050;DHT22;22958;51.232;6.826;2022-10-31T01:12:44;13.50;99.90
37050;DHT22;22958;51.232;6.826;2022-10-31T01:15:11;13.40;99.90
37050;DHT22;22958;51.232;6.826;2022-10-31T01:17:36;13.40;99.90
37050;DHT22;22958;51.232;6.826;2022-10-31T01:20:02;13.30;99.90
37050;DHT22;22958;51.232;6.826;2022-10-31T01:22:27;13.30;99.90
37050;DHT22;22958;51.232;6.826;2022-10-31T01:24:53;13.40;99.90
37050;DHT22;22958;51.232;6.826;2022-10-31T01:27:18;13.40;99.90
37050;DHT22;22958;51.232;6.826;2022-10-31T01:29:44;13.30;99.90
37050;DHT22;22958;51.232;6.826;2022-10-31T01:32:09;13.20;99.90
37050;DHT22;22958;51.232;6.826;2022-10-31T01:34:35;13.10;99.90
37050;DHT22;22958;51.232;6.826;2022-10-31T01:37:00;13.10;99.90
37050;DHT22;22958;51.232;6.826;2022-10-31T01:39:25;13.10;99.90
37050;DHT22;22958;51.232;6.826;2022-10-31T01:41:52;13.00;99.90
37050;DHT22;22958;51.232;6.826;2022-10-31T01:46:44;13.00;99.90
37050;DHT22;22958;51.232;6.826;2022-10-31T01:49:17;13.00;99.90
37050;DHT22;22958;51.232;6.826;2022-10-31T01:51:48;13.00;99.90
37050;DHT22;22958;51.232;6.826;2022-10-31T01:54:15;13.00;99.90
37050;DHT22;22958;51.232;6.826;2022-10-31T01:56:42;13.00;99.90
37050;DHT22;22958;51.232;6.826;2022-10-31T01:59:10;13.00;99.90
37050;DHT22;22958;51.232;6.826;2022-10-31T02:01:37;12.90;99.90
37050;DHT22;22958;51.232;6.826;2022-10-31T02:04:03;12.80;99.90
37050;DHT22;22958;51.232;6.826;2022-10-31T02:06:37;12.80;99.90
37050;DHT22;22958;51.232;6.826;2022-10-31T02:09:04;12.70;99.90
37050;DHT22;22958;51.232;6.826;2022-10-31T02:11:30;12.70;99.90
37050;DHT22;22958;51.232;6.826;2022-10-31T02:13:56;12.60;99.90
37050;DHT22;22958;51.232;6.826;2022-10-31T02:16:23;12.60;99.90
37050;DHT22;22958;51.232;6.826;2022-10-31T02:18:48;12.60;99.90
37050;DHT22;22958;51.232;6.826;2022-10-31T02:21:19;12.70;99.90
37050;DHT22;22958;51.232;6.826;2022-10-31T02:34:32;12.60;99.90
37050;DHT22;22958;51.232;6.826;2022-10-31T02:39:39;12.60;99.90
37050;DHT22;22958;51.232;6.826;2022-10-31T02:42:13;12.60;99.90
37050;DHT22;22958;51.232;6.826;2022-10-31T02:44:44;12.60;99.90
37050;DHT22;22958;51.232;6.826;2022-10-31T02:47:11;12.60;99.90
37050;DHT22;22958;51.232;6.826;2022-10-31T02:52:29;12.70;99.90
37050;DHT22;22958;51.232;6.826;2022-10-31T02:54:54;12.80;99.90
37050;DHT22;22958;51.232;6.826;2022-10-31T02:57:24;12.80;99.90
37050;DHT22;22958;51.232;6.826;2022-10-31T02:59:52;12.80;99.90
37050;DHT22;22958;51.232;6.826;2022-10-31T03:05:12;12.80;99.90
37050;DHT22;22958;51.232;6.826;2022-10-31T03:07:57;12.80;99.90
37050;DHT22;22958;51.232;6.826;2022-10-31T03:10:27;12.80;99.90
37050;DHT22;22958;51.232;6.826;2022-10-31T03:12:59;12.80;99.90
37050;DHT22;22958;51.232;6.826;2022-10-31T03:15:33;12.80;99.90
37050;DHT22;22958;51.232;6.826;2022-10-31T03:18:01;12.70;99.90
37050;DHT22;22958;51.232;6.826;2022-10-31T03:20:39;12.70;99.90
37050;DHT22;22958;51.232;6.826;2022-10-31T03:23:06;12.70;99.90
37050;DHT22;22958;51.232;6.826;2022-10-31T03:25:33;12.80;99.90
37050;DHT22;22958;51.232;6.826;2022-10-31T03:28:00;12.80;99.90
37050;DHT22;22958;51.232;6.826;2022-10-31T03:30:26;12.70;99.90
37050;DHT22;22958;51.232;6.826;2022-10-31T03:32:52;12.70;99.90
37050;DHT22;22958;51.232;6.826;2022-10-31T03:35:19;12.70;99.90
37050;DHT22;22958;51.232;6.826;2022-10-31T03:37:46;12.70;99.90
37050;DHT22;22958;51.232;6.826;2022-10-31T03:40:12;12.60;99.90
37050;DHT22;22958;51.232;6.826;2022-10-31T03:42:40;12.60;99.90
37050;DHT22;22958;51.232;6.826;2022-10-31T03:47:35;12.70;99.90
37050;DHT22;22958;51.232;6.826;2022-10-31T03:50:02;12.70;99.90
37050;DHT22;22958;51.232;6.826;2022-10-31T03:53:04;12.70;99.90
37050;DHT22;22958;51.232;6.826;2022-10-31T03:55:34;12.60;99.90
37050;DHT22;22958;51.232;6.826;2022-10-31T03:58:12;12.60;99.90
37050;DHT22;22958;51.232;6.826;2022-10-31T04:00:42;12.60;99.90
37050;DHT22;22958;51.232;6.826;2022-10-31T04:03:30;12.60;99.90
37050;DHT22;22958;51.232;6.826;2022-10-31T04:05:55;12.50;99.90
37050;DHT22;22958;51.232;6.826;2022-10-31T04:08:23;12.50;99.90
37050;DHT22;22958;51.232;6.826;2022-10-31T04:10:49;12.40;99.90
37050;DHT22;22958;51.232;6.826;2022-10-31T04:13:16;12.40;99.90
37050;DHT22;22958;51.232;6.826;2022-10-31T04:15:42;12.50;99.90
37050;DHT22;22958;51.232;6.826;2022-10-31T04:18:08;12.50;99.90
37050;DHT22;22958;51.232;6.826;2022-10-31T04:20:35;12.50;99.90
37050;DHT22;22958;51.232;6.826;2022-10-31T04:23:00;12.60;99.90
37050;DHT22;22958;51.232;6.826;2022-10-31T04:25:26;12.60;99.90
37050;DHT22;22958;51.232;6.826;2022-10-31T04:27:51;12.60;99.90
37050;DHT22;22958;51.232;6.826;2022-10-31T04:30:17;12.60;99.90
37050;DHT22;22958;51.232;6.826;2022-10-31T04:32:42;12.50;99.90
37050;DHT22;22958;51.232;6.826;2022-10-31T04:35:08;12.50;99.90
37050;DHT22;22958;51.232;6.826;2022-10-31T04:37:33;12.30;99.90
37050;DHT22;22958;51.232;6.826;2022-10-31T04:39:58;12.30;99.90
37050;DHT22;22958;51.232;6.826;2022-10-31T04:42:24;12.40;99.90
37050;DHT22;22958;51.232;6.826;2022-10-31T04:44:49;12.50;99.90
37050;DHT22;22958;51.232;6.826;2022-10-31T04:47:15;12.50;99.90
37050;DHT22;22958;51.232;6.826;2022-10-31T04:49:40;12.40;99.90
37050;DHT22;22958;51.232;6.826;2022-10-31T04:52:06;12.40;99.90
37050;DHT22;22958;51.232;6.826;2022-10-31T04:54:32;12.40;99.90
37050;DHT22;22958;51.232;6.826;2022-10-31T04:56:57;12.40;99.90
37050;DHT22;22958;51.232;6.826;2022-10-31T04:59:23;12.40;99.90
37050;DHT22;22958;51.232;6.826;2022-10-31T05:01:48;12.30;99.90
37050;DHT22;22958;51.232;6.826;2022-10-31T05:04:14;12.30;99.90
37050;DHT22;22958;51.232;6.826;2022-10-31T05:06:39;12.30;99.90
37050;DHT22;22958;51.232;6.826;2022-10-31T05:09:04;12.20;99.90
37050;DHT22;22958;51.232;6.826;2022-10-31T05:11:30;12.20;99.90
37050;DHT22;22958;51.232;6.826;2022-10-31T05:13:55;12.30;99.90
37050;DHT22;22958;51.232;6.826;2022-10-31T05:16:21;12.30;99.90
37050;DHT22;22958;51.232;6.826;2022-10-31T05:18:46;12.30;99.90
37050;DHT22;22958;51.232;6.826;2022-10-31T05:21:11;12.30;99.90
37050;DHT22;22958;51.232;6.826;2022-10-31T05:23:37;12.20;99.90
37050;DHT22;22958;51.232;6.826;2022-10-31T05:26:02;12.20;99.90
37050;DHT22;22958;51.232;6.826;2022-10-31T05:28:28;12.30;99.90
37050;DHT22;22958;51.232;6.826;2022-10-31T05:30:53;12.30;99.90
37050;DHT22;22958;51.232;6.826;2022-10-31T05:33:19;12.30;99.90
37050;DHT22;22958;51.232;6.826;2022-10-31T05:35:44;12.30;99.90
37050;DHT22;22958;51.232;6.826;2022-10-31T05:38:09;12.30;99.90
37050;DHT22;22958;51.232;6.826;2022-10-31T05:40:35;12.40;99.90
37050;DHT22;22958;51.232;6.826;2022-10-31T05:43:00;12.40;99.90
37050;DHT22;22958;51.232;6.826;2022-10-31T05:45:26;12.30;99.90
37050;DHT22;22958;51.232;6.826;2022-10-31T05:47:53;12.20;99.90
37050;DHT22;22958;51.232;6.826;2022-10-31T05:50:19;12.10;99.90
37050;DHT22;22958;51.232;6.826;2022-10-31T05:52:45;12.20;99.90
37050;DHT22;22958;51.232;6.826;2022-10-31T05:55:10;12.20;99.90
37050;DHT22;22958;51.232;6.826;2022-10-31T05:57:36;12.10;99.90
37050;DHT22;22958;51.232;6.826;2022-10-31T06:00:01;12.10;99.90
37050;DHT22;22958;51.232;6.826;2022-10-31T06:02:28;12.10;99.90
37050;DHT22;22958;51.232;6.826;2022-10-31T06:04:57;12.10;99.90
37050;DHT22;22958;51.232;6.826;2022-10-31T06:07:22;12.10;99.90
37050;DHT22;22958;51.232;6.826;2022-10-31T06:09:48;12.20;99.90
37050;DHT22;22958;51.232;6.826;2022-10-31T06:12:13;12.20;99.90
37050;DHT22;22958;51.232;6.826;2022-10-31T06:14:39;12.20;99.90
37050;DHT22;22958;51.232;6.826;2022-10-31T06:17:04;12.20;99.90
37050;DHT22;22958;51.232;6.826;2022-10-31T06:19:29;12.10;99.90
37050;DHT22;22958;51.232;6.826;2022-10-31T06:21:55;12.10;99.90
37050;DHT22;22958;51.232;6.826;2022-10-31T06:24:20;12.00;99.90
37050;DHT22;22958;51.232;6.826;2022-10-31T06:26:46;12.10;99.90
37050;DHT22;22958;51.232;6.826;2022-10-31T06:29:11;12.10;99.90
37050;DHT22;22958;51.232;6.826;2022-10-31T06:31:37;12.10;99.90
37050;DHT22;22958;51.232;6.826;2022-10-31T06:34:02;12.10;99.90
37050;DHT22;22958;51.232;6.826;2022-10-31T06:36:27;12.10;99.90
37050;DHT22;22958;51.232;6.826;2022-10-31T06:38:53;12.10;99.90
37050;DHT22;22958;51.232;6.826;2022-10-31T06:41:18;12.10;99.90
37050;DHT22;22958;51.232;6.826;2022-10-31T06:43:46;12.00;99.90
37050;DHT22;22958;51.232;6.826;2022-10-31T06:46:11;11.90;99.90
37050;DHT22;22958;51.232;6.826;2022-10-31T06:48:36;12.00;99.90
37050;DHT22;22958;51.232;6.826;2022-10-31T06:51:02;11.90;99.90
37050;DHT22;22958;51.232;6.826;2022-10-31T06:53:27;11.90;99.90
37050;DHT22;22958;51.232;6.826;2022-10-31T06:55:57;12.00;99.90
37050;DHT22;22958;51.232;6.826;2022-10-31T06:58:23;12.10;99.90
37050;DHT22;22958;51.232;6.826;2022-10-31T07:00:48;12.10;99.90
37050;DHT22;22958;51.232;6.826;2022-10-31T07:03:14;12.20;99.90
37050;DHT22;22958;51.232;6.826;2022-10-31T07:05:41;12.20;99.90
37050;DHT22;22958;51.232;6.826;2022-10-31T07:08:07;12.30;99.90
37050;DHT22;22958;51.232;6.826;2022-10-31T07:10:34;12.30;99.90
37050;DHT22;22958;51.232;6.826;2022-10-31T07:13:00;12.30;99.90
37050;DHT22;22958;51.232;6.826;2022-10-31T07:15:27;12.40;99.90
37050;DHT22;22958;51.232;6.826;2022-10-31T07:17:53;12.50;99.90
37050;DHT22;22958;51.232;6.826;2022-10-31T07:20:18;12.50;99.90
37050;DHT22;22958;51.232;6.826;2022-10-31T07:22:44;12.50;99.90
37050;DHT22;22958;51.232;6.826;2022-10-31T07:25:09;12.50;99.90
37050;DHT22;22958;51.232;6.826;2022-10-31T07:27:41;12.50;99.90
37050;DHT22;22958;51.232;6.826;2022-10-31T07:30:08;12.50;99.90
37050;DHT22;22958;51.232;6.826;2022-10-31T07:32:40;12.50;99.90
37050;DHT22;22958;51.232;6.826;2022-10-31T07:35:06;12.60;99.90
37050;DHT22;22958;51.232;6.826;2022-10-31T07:37:32;12.60;99.90
37050;DHT22;22958;51.232;6.826;2022-10-31T07:39:57;12.60;99.90
37050;DHT22;22958;51.232;6.826;2022-10-31T07:42:23;12.70;99.90
37050;DHT22;22958;51.232;6.826;2022-10-31T07:44:48;12.80;99.90
37050;DHT22;22958;51.232;6.826;2022-10-31T07:47:13;12.80;99.90
37050;DHT22;22958;51.232;6.826;2022-10-31T07:49:39;12.80;99.90
37050;DHT22;22958;51.232;6.826;2022-10-31T07:52:04;12.90;99.90
37050;DHT22;22958;51.232;6.826;2022-10-31T07:54:30;13.00;99.90
37050;DHT22;22958;51.232;6.826;2022-10-31T07:56:55;13.10;99.90
37050;DHT22;22958;51.232;6.826;2022-10-31T07:59:21;13.20;99.90
37050;DHT22;22958;51.232;6.826;2022-10-31T08:01:46;13.30;99.90
37050;DHT22;22958;51.232;6.826;2022-10-31T08:04:12;13.30;99.90
37050;DHT22;22958;51.232;6.826;2022-10-31T08:06:37;13.40;99.90
37050;DHT22;22958;51.232;6.826;2022-10-31T08:09:02;13.40;99.90
37050;DHT22;22958;51.232;6.826;2022-10-31T08:11:28;13.50;99.90
37050;DHT22;22958;51.232;6.826;2022-10-31T08:13:53;13.60;99.90
37050;DHT22;22958;51.232;6.826;2022-10-31T08:16:19;13.70;99.90
37050;DHT22;22958;51.232;6.826;2022-10-31T08:18:44;13.90;99.90
37050;DHT22;22958;51.232;6.826;2022-10-31T08:21:10;14.00;99.90
37050;DHT22;22958;51.232;6.826;2022-10-31T08:23:35;14.10;99.90
37050;DHT22;22958;51.232;6.826;2022-10-31T08:26:01;14.20;99.90
37050;DHT22;22958;51.232;6.826;2022-10-31T08:28:26;14.20;99.90
37050;DHT22;22958;51.232;6.826;2022-10-31T08:30:52;14.30;99.90
37050;DHT22;22958;51.232;6.826;2022-10-31T08:33:17;14.50;99.90
37050;DHT22;22958;51.232;6.826;2022-10-31T08:35:43;14.60;99.90
37050;DHT22;22958;51.232;6.826;2022-10-31T08:38:09;14.80;99.90
37050;DHT22;22958;51.232;6.826;2022-10-31T08:40:35;14.80;99.90
37050;DHT22;22958;51.232;6.826;2022-10-31T08:43:05;14.90;99.90
37050;DHT22;22958;51.232;6.826;2022-10-31T08:45:31;15.00;99.90
37050;DHT22;22958;51.232;6.826;2022-10-31T08:47:58;15.10;99.90
37050;DHT22;22958;51.232;6.826;2022-10-31T08:50:24;15.30;99.90
37050;DHT22;22958;51.232;6.826;2022-10-31T08:52:49;15.40;99.90
37050;DHT22;22958;51.232;6.826;2022-10-31T08:55:15;15.60;99.90
37050;DHT22;22958;51.232;6.826;2022-10-31T08:57:40;15.60;99.90
37050;DHT22;22958;51.232;6.826;2022-10-31T09:00:06;15.60;99.90
37050;DHT22;22958;51.232;6.826;2022-10-31T09:02:31;15.70;99.90
37050;DHT22;22958;51.232;6.826;2022-10-31T09:04:57;15.80;99.90
37050;DHT22;22958;51.232;6.826;2022-10-31T09:07:22;15.90;99.90
37050;DHT22;22958;51.232;6.826;2022-10-31T09:09:48;16.00;99.90
37050;DHT22;22958;51.232;6.826;2022-10-31T09:12:14;15.90;99.90
37050;DHT22;22958;51.232;6.826;2022-10-31T09:14:40;15.80;99.90
37050;DHT22;22958;51.232;6.826;2022-10-31T09:17:05;15.70;99.90
37050;DHT22;22958;51.232;6.826;2022-10-31T09:19:30;15.80;99.90
37050;DHT22;22958;51.232;6.826;2022-10-31T09:21:56;15.70;99.90
37050;DHT22;22958;51.232;6.826;2022-10-31T09:24:21;15.80;99.90
37050;DHT22;22958;51.232;6.826;2022-10-31T09:26:47;15.70;99.90
37050;DHT22;22958;51.232;6.826;2022-10-31T09:29:12;15.80;99.90
37050;DHT22;22958;51.232;6.826;2022-10-31T09:31:38;15.70;99.90
37050;DHT22;22958;51.232;6.826;2022-10-31T09:34:03;15.90;99.90
37050;DHT22;22958;51.232;6.826;2022-10-31T09:36:29;16.10;99.90
37050;DHT22;22958;51.232;6.826;2022-10-31T09:38:54;16.20;99.90
37050;DHT22;22958;51.232;6.826;2022-10-31T09:41:31;16.20;99.90
37050;DHT22;22958;51.232;6.826;2022-10-31T09:44:06;16.40;99.90
37050;DHT22;22958;51.232;6.826;2022-10-31T09:49:33;17.10;99.90
37050;DHT22;22958;51.232;6.826;2022-10-31T09:52:01;17.20;99.90
37050;DHT22;22958;51.232;6.826;2022-10-31T09:56:59;17.40;99.90
37050;DHT22;22958;51.232;6.826;2022-10-31T09:59:35;17.50;99.90
37050;DHT22;22958;51.232;6.826;2022-10-31T10:02:03;17.60;99.90
37050;DHT22;22958;51.232;6.826;2022-10-31T10:04:31;17.50;99.90
37050;DHT22;22958;51.232;6.826;2022-10-31T10:06:58;17.40;99.90
37050;DHT22;22958;51.232;6.826;2022-10-31T10:09:26;17.50;99.90
37050;DHT22;22958;51.232;6.826;2022-10-31T10:11:55;17.30;99.90
37050;DHT22;22958;51.232;6.826;2022-10-31T10:25:15;18.20;99.90
37050;DHT22;22958;51.232;6.826;2022-10-31T10:32:41;18.70;99.90
37050;DHT22;22958;51.232;6.826;2022-10-31T10:37:42;17.90;99.90
37050;DHT22;22958;51.232;6.826;2022-10-31T10:40:11;17.90;99.90
37050;DHT22;22958;51.232;6.826;2022-10-31T10:42:38;17.80;99.90
37050;DHT22;22958;51.232;6.826;2022-10-31T10:45:22;17.70;99.90
37050;DHT22;22958;51.232;6.826;2022-10-31T10:48:11;17.80;99.90
37050;DHT22;22958;51.232;6.826;2022-10-31T10:50:42;17.90;99.90
37050;DHT22;22958;51.232;6.826;2022-10-31T10:55:40;18.30;99.90
37050;DHT22;22958;51.232;6.826;2022-10-31T10:58:07;18.40;99.90
37050;DHT22;22958;51.232;6.826;2022-10-31T11:00:46;19.10;99.90
37050;DHT22;22958;51.232;6.826;2022-10-31T11:03:12;19.70;99.90
37050;DHT22;22958;51.232;6.826;2022-10-31T11:08:04;20.40;99.90
37050;DHT22;22958;51.232;6.826;2022-10-31T11:10:30;20.10;99.90
37050;DHT22;22958;51.232;6.826;2022-10-31T11:13:00;19.90;99.90
37050;DHT22;22958;51.232;6.826;2022-10-31T11:15:26;19.70;99.90
37050;DHT22;22958;51.232;6.826;2022-10-31T11:17:53;19.70;99.90
37050;DHT22;22958;51.232;6.826;2022-10-31T11:22:45;19.80;99.90
37050;DHT22;22958;51.232;6.826;2022-10-31T11:25:21;20.20;99.90
37050;DHT22;22958;51.232;6.826;2022-10-31T11:27:47;20.20;99.90
37050;DHT22;22958;51.232;6.826;2022-10-31T11:30:23;20.40;99.90
37050;DHT22;22958;51.232;6.826;2022-10-31T11:32:49;20.60;99.90
37050;DHT22;22958;51.232;6.826;2022-10-31T11:35:18;20.60;99.90
37050;DHT22;22958;51.232;6.826;2022-10-31T11:37:44;20.40;99.90
37050;DHT22;22958;51.232;6.826;2022-10-31T11:40:23;20.60;99.90
37050;DHT22;22958;51.232;6.826;2022-10-31T11:42:49;20.90;99.90
37050;DHT22;22958;51.232;6.826;2022-10-31T11:45:27;21.40;99.90
37050;DHT22;22958;51.232;6.826;2022-10-31T11:47:53;20.80;99.90
37050;DHT22;22958;51.232;6.826;2022-10-31T11:50:34;20.20;99.90
37050;DHT22;22958;51.232;6.826;2022-10-31T11:53:02;20.00;99.90
37050;DHT22;22958;51.232;6.826;2022-10-31T11:55:38;20.10;99.90
37050;DHT22;22958;51.232;6.826;2022-10-31T11:58:04;20.10;99.90
37050;DHT22;22958;51.232;6.826;2022-10-31T12:00:31;20.30;99.90
37050;DHT22;22958;51.232;6.826;2022-10-31T12:03:23;20.60;99.90
37050;DHT22;22958;51.232;6.826;2022-10-31T12:05:54;20.40;99.90
37050;DHT22;22958;51.232;6.826;2022-10-31T12:08:21;20.50;99.90
37050;DHT22;22958;51.232;6.826;2022-10-31T12:14:03;20.40;99.90
37050;DHT22;22958;51.232;6.826;2022-10-31T12:19:23;21.10;99.90
37050;DHT22;22958;51.232;6.826;2022-10-31T12:24:25;22.00;99.90
37050;DHT22;22958;51.232;6.826;2022-10-31T12:27:16;21.90;99.90
37050;DHT22;22958;51.232;6.826;2022-10-31T12:32:29;22.10;99.90
37050;DHT22;22958;51.232;6.826;2022-10-31T12:35:03;22.50;99.90
37050;DHT22;22958;51.232;6.826;2022-10-31T12:40:09;23.00;99.90
37050;DHT22;22958;51.232;6.826;2022-10-31T12:45:33;22.70;99.90
37050;DHT22;22958;51.232;6.826;2022-10-31T12:48:13;22.50;99.90
37050;DHT22;22958;51.232;6.826;2022-10-31T12:50:51;22.80;99.90
37050;DHT22;22958;51.232;6.826;2022-10-31T12:58:29;23.40;99.90
37050;DHT22;22958;51.232;6.826;2022-10-31T13:01:08;23.00;99.90
37050;DHT22;22958;51.232;6.826;2022-10-31T13:06:07;22.30;99.90
37050;DHT22;22958;51.232;6.826;2022-10-31T13:08:36;21.90;99.90
37050;DHT22;22958;51.232;6.826;2022-10-31T13:16:15;22.30;99.90
37050;DHT22;22958;51.232;6.826;2022-10-31T13:18:51;21.90;99.90
37050;DHT22;22958;51.232;6.826;2022-10-31T13:21:21;21.50;99.90
37050;DHT22;22958;51.232;6.826;2022-10-31T13:23:49;21.30;99.90
37050;DHT22;22958;51.232;6.826;2022-10-31T13:26:19;21.50;99.90
37050;DHT22;22958;51.232;6.826;2022-10-31T13:28:47;21.90;99.90
37050;DHT22;22958;51.232;6.826;2022-10-31T13:31:13;21.70;99.90
37050;DHT22;22958;51.232;6.826;2022-10-31T13:33:49;21.50;99.90
37050;DHT22;22958;51.232;6.826;2022-10-31T13:38:48;21.10;99.90
37050;DHT22;22958;51.232;6.826;2022-10-31T13:46:23;20.70;99.90
37050;DHT22;22958;51.232;6.826;2022-10-31T13:48:48;20.60;99.90
37050;DHT22;22958;51.232;6.826;2022-10-31T13:51:23;20.60;99.90
37050;DHT22;22958;51.232;6.826;2022-10-31T13:56:18;20.60;99.90
37050;DHT22;22958;51.232;6.826;2022-10-31T14:01:25;20.60;99.90
37050;DHT22;22958;51.232;6.826;2022-10-31T14:06:22;20.50;99.90
37050;DHT22;22958;51.232;6.826;2022-10-31T14:08:49;20.60;99.90
37050;DHT22;22958;51.232;6.826;2022-10-31T14:11:22;20.50;99.90
37050;DHT22;22958;51.232;6.826;2022-10-31T14:13:48;20.70;99.90
37050;DHT22;22958;51.232;6.826;2022-10-31T14:18:47;20.90;99.90
37050;DHT22;22958;51.232;6.826;2022-10-31T14:21:15;21.10;99.90
37050;DHT22;22958;51.232;6.826;2022-10-31T14:23:41;21.40;99.90
37050;DHT22;22958;51.232;6.826;2022-10-31T14:28:44;21.60;99.90
37050;DHT22;22958;51.232;6.826;2022-10-31T14:33:50;21.50;99.90
37050;DHT22;22958;51.232;6.826;2022-10-31T14:36:37;21.50;99.90
37050;DHT22;22958;51.232;6.826;2022-10-31T14:39:23;21.10;99.90
37050;DHT22;22958;51.232;6.826;2022-10-31T14:42:13;20.60;99.90
37050;DHT22;22958;51.232;6.826;2022-10-31T14:52:41;20.10;99.90
37050;DHT22;22958;51.232;6.826;2022-10-31T14:55:11;20.00;99.90
37050;DHT22;22958;51.232;6.826;2022-10-31T14:57:37;19.90;99.90
37050;DHT22;22958;51.232;6.826;2022-10-31T15:00:07;19.90;99.90
37050;DHT22;22958;51.232;6.826;2022-10-31T15:05:05;19.80;99.90
37050;DHT22;22958;51.232;6.826;2022-10-31T15:07:32;19.80;99.90
37050;DHT22;22958;51.232;6.826;2022-10-31T15:10:00;19.80;99.90
37050;DHT22;22958;51.232;6.826;2022-10-31T15:12:27;19.60;99.90
37050;DHT22;22958;51.232;6.826;2022-10-31T15:14:53;19.60;99.90
37050;DHT22;22958;51.232;6.826;2022-10-31T15:17:19;19.60;99.90
37050;DHT22;22958;51.232;6.826;2022-10-31T15:19:44;19.50;99.90
37050;DHT22;22958;51.232;6.826;2022-10-31T15:22:12;19.50;99.90
37050;DHT22;22958;51.232;6.826;2022-10-31T15:24:39;19.60;99.90
37050;DHT22;22958;51.232;6.826;2022-10-31T15:27:04;19.60;99.90
37050;DHT22;22958;51.232;6.826;2022-10-31T15:29:30;19.60;99.90
37050;DHT22;22958;51.232;6.826;2022-10-31T15:32:00;19.60;99.90
37050;DHT22;22958;51.232;6.826;2022-10-31T15:34:27;19.60;99.90
37050;DHT22;22958;51.232;6.826;2022-10-31T15:36:55;19.60;99.90
37050;DHT22;22958;51.232;6.826;2022-10-31T15:39:20;19.60;99.90
37050;DHT22;22958;51.232;6.826;2022-10-31T15:41:50;19.60;99.90
37050;DHT22;22958;51.232;6.826;2022-10-31T15:44:28;19.50;99.90
37050;DHT22;22958;51.232;6.826;2022-10-31T15:46:56;19.50;99.90
37050;DHT22;22958;51.232;6.826;2022-10-31T15:49:26;19.60;99.90
37050;DHT22;22958;51.232;6.826;2022-10-31T15:51:53;19.50;99.90
37050;DHT22;22958;51.232;6.826;2022-10-31T15:54:18;19.40;99.90
37050;DHT22;22958;51.232;6.826;2022-10-31T15:56:44;19.30;99.90
37050;DHT22;22958;51.232;6.826;2022-10-31T15:59:19;19.30;99.90
37050;DHT22;22958;51.232;6.826;2022-10-31T16:01:55;19.20;99.90
37050;DHT22;22958;51.232;6.826;2022-10-31T16:04:23;19.20;99.90
37050;DHT22;22958;51.232;6.826;2022-10-31T16:07:02;19.10;99.90
37050;DHT22;22958;51.232;6.826;2022-10-31T16:09:28;19.10;99.90
37050;DHT22;22958;51.232;6.826;2022-10-31T16:11:54;19.20;99.90
37050;DHT22;22958;51.232;6.826;2022-10-31T16:14:22;19.00;99.90
37050;DHT22;22958;51.232;6.826;2022-10-31T16:16:49;19.00;99.90
37050;DHT22;22958;51.232;6.826;2022-10-31T16:19:21;19.00;99.90
37050;DHT22;22958;51.232;6.826;2022-10-31T16:21:47;18.90;99.90
37050;DHT22;22958;51.232;6.826;2022-10-31T16:24:18;18.90;99.90
37050;DHT22;22958;51.232;6.826;2022-10-31T16:26:48;18.90;99.90
37050;DHT22;22958;51.232;6.826;2022-10-31T16:32:29;18.80;99.90
37050;DHT22;22958;51.232;6.826;2022-10-31T16:34:58;18.80;99.90
37050;DHT22;22958;51.232;6.826;2022-10-31T16:37:24;18.70;99.90
37050;DHT22;22958;51.232;6.826;2022-10-31T16:39:49;18.70;99.90
37050;DHT22;22958;51.232;6.826;2022-10-31T16:42:15;18.70;99.90
37050;DHT22;22958;51.232;6.826;2022-10-31T16:44:40;18.70;99.90
37050;DHT22;22958;51.232;6.826;2022-10-31T16:47:11;18.60;99.90
37050;DHT22;22958;51.232;6.826;2022-10-31T16:49:37;18.60;99.90
37050;DHT22;22958;51.232;6.826;2022-10-31T16:52:02;18.60;99.90
37050;DHT22;22958;51.232;6.826;2022-10-31T16:54:28;18.60;99.90
37050;DHT22;22958;51.232;6.826;2022-10-31T16:56:54;18.60;99.90
37050;DHT22;22958;51.232;6.826;2022-10-31T16:59:19;18.60;99.90
37050;DHT22;22958;51.232;6.826;2022-10-31T17:01:45;18.60;99.90
37050;DHT22;22958;51.232;6.826;2022-10-31T17:04:13;18.50;99.90
37050;DHT22;22958;51.232;6.826;2022-10-31T17:06:39;18.40;99.90
37050;DHT22;22958;51.232;6.826;2022-10-31T17:09:04;18.50;99.90
37050;DHT22;22958;51.232;6.826;2022-10-31T17:11:30;18.50;99.90
37050;DHT22;22958;51.232;6.826;2022-10-31T17:13:55;18.50;99.90
37050;DHT22;22958;51.232;6.826;2022-10-31T17:16:21;18.40;99.90
37050;DHT22;22958;51.232;6.826;2022-10-31T17:18:47;18.40;99.90
37050;DHT22;22958;51.232;6.826;2022-10-31T17:21:15;18.40;99.90
37050;DHT22;22958;51.232;6.826;2022-10-31T17:23:41;18.40;99.90
37050;DHT22;22958;51.232;6.826;2022-10-31T17:26:08;18.40;99.90
37050;DHT22;22958;51.232;6.826;2022-10-31T17:28:35;18.30;99.90
37050;DHT22;22958;51.232;6.826;2022-10-31T17:33:28;18.40;99.90
37050;DHT22;22958;51.232;6.826;2022-10-31T17:35:54;18.30;99.90
37050;DHT22;22958;51.232;6.826;2022-10-31T17:38:19;18.30;99.90